Webcam Richtung Westen

Webcam27

Webcam Richtung Norden

Webcam36

Webcam Richtung Osten

Webcam09

Wetter(Würzburg):
181700Z AUTO 28006G11KT 75KM FEW020 SCT063 OVC091 16/11 Q1010
		
Sat 18.05.2024, 17:00 UTC

Sichtweite bis zu 75 km
Wind aus 280° mit 06kt, in Böen bis zu 11kt
vereinzelte Wolken (1-2 Achtel) bei 2000 Fuß
einige Wolken (3-4 Achtel) bei 6300 Fuß
bedeckter Himmel (8 Achtel) bei 9100 Fuß
Temperatur: 16 °C
Taupunkt: 11 °C
QNH: 1010 hPa
                         Heute        Morgen
                         18.05        19.05
--------------------------------------------
Beginn der Dämmerung     02:51        02:50
Sonnenaufgang            03:31        03:30
Sonnenuntergang          19:02        19:04
Ende der Dämmerung       19:42        19:44

Alle Zeiten in UTC